createdAt,value
2018-01-23T00:00:10.678Z,0.00
2018-01-23T00:01:42.495Z,0.00
2018-01-23T00:03:14.313Z,0.00
2018-01-23T00:04:46.130Z,0.00
2018-01-23T00:06:18.148Z,0.00
2018-01-23T00:07:49.770Z,0.00
2018-01-23T00:09:21.583Z,0.00
2018-01-23T00:10:53.400Z,0.00
2018-01-23T00:12:25.368Z,0.00
2018-01-23T00:13:57.034Z,0.00
2018-01-23T00:15:28.852Z,0.00
2018-01-23T00:17:00.669Z,0.00
2018-01-23T00:18:32.490Z,0.00
2018-01-23T00:20:04.303Z,0.00
2018-01-23T00:21:36.136Z,0.00
2018-01-23T00:23:07.937Z,0.00
2018-01-23T00:24:39.761Z,0.00
2018-01-23T00:26:11.572Z,0.00
2018-01-23T00:27:43.389Z,0.00
2018-01-23T00:29:15.206Z,0.00
2018-01-23T00:30:47.124Z,0.00
2018-01-23T00:32:18.840Z,0.00
2018-01-23T00:33:50.658Z,0.00
2018-01-23T00:35:22.476Z,0.00
2018-01-23T00:36:54.442Z,0.00
2018-01-23T00:38:26.110Z,0.00
2018-01-23T00:39:57.926Z,0.00
2018-01-23T00:41:29.743Z,0.00
2018-01-23T00:43:01.560Z,0.00
2018-01-23T00:44:33.378Z,0.00
2018-01-23T00:46:05.194Z,0.00
2018-01-23T00:47:37.011Z,0.00
2018-01-23T00:49:08.928Z,0.00
2018-01-23T00:50:40.645Z,0.00
2018-01-23T00:52:12.462Z,0.00
2018-01-23T00:53:44.280Z,0.00
2018-01-23T00:55:16.098Z,0.00
2018-01-23T00:56:47.913Z,0.00
2018-01-23T00:58:19.733Z,0.00
2018-01-23T00:59:51.548Z,0.00
2018-01-23T01:01:23.365Z,0.00
2018-01-23T01:02:55.183Z,0.00
2018-01-23T01:04:27.000Z,0.00
2018-01-23T01:05:58.817Z,0.00
2018-01-23T01:07:30.885Z,0.00
2018-01-23T01:09:02.453Z,0.00
2018-01-23T01:10:34.271Z,0.00
2018-01-23T01:12:06.086Z,0.00
2018-01-23T01:13:37.903Z,0.00
2018-01-23T01:15:09.720Z,0.00
2018-01-23T01:16:41.536Z,0.00
2018-01-23T01:18:13.355Z,0.00
2018-01-23T01:19:45.421Z,0.00
2018-01-23T01:21:16.993Z,0.00
2018-01-23T01:22:48.804Z,0.00
2018-01-23T01:24:20.635Z,0.00
2018-01-23T01:25:52.537Z,0.00
2018-01-23T01:27:24.254Z,0.00
2018-01-23T01:28:56.070Z,0.00
2018-01-23T01:30:27.888Z,0.00
2018-01-23T01:31:59.713Z,0.00
2018-01-23T01:33:31.523Z,0.00
2018-01-23T01:35:03.337Z,0.00
2018-01-23T01:36:35.153Z,0.00
2018-01-23T01:38:06.970Z,0.00
2018-01-23T01:39:38.786Z,0.00
2018-01-23T01:41:12.841Z,0.00
2018-01-23T01:42:42.419Z,0.00
2018-01-23T01:44:14.486Z,0.00
2018-01-23T01:45:46.052Z,0.00
2018-01-23T01:47:17.868Z,0.00
2018-01-23T01:48:49.698Z,0.00
2018-01-23T01:50:21.502Z,0.00
2018-01-23T01:51:53.316Z,0.00
2018-01-23T01:53:25.133Z,0.00
2018-01-23T01:54:56.950Z,0.00
2018-01-23T01:56:28.926Z,0.00
2018-01-23T01:58:00.583Z,0.00
2018-01-23T01:59:32.397Z,0.00
2018-01-23T02:01:04.214Z,0.00
2018-01-23T02:02:36.131Z,0.00
2018-01-23T02:04:07.900Z,0.00
2018-01-23T02:05:39.668Z,0.00
2018-01-23T02:07:11.479Z,0.00
2018-01-23T02:08:43.447Z,0.00
2018-01-23T02:10:15.113Z,0.00
2018-01-23T02:11:46.941Z,0.00
2018-01-23T02:13:18.747Z,0.00
2018-01-23T02:14:50.562Z,0.00
2018-01-23T02:16:22.419Z,0.00
2018-01-23T02:17:54.196Z,0.00
2018-01-23T02:19:26.013Z,0.00
2018-01-23T02:20:58.180Z,0.00
2018-01-23T02:22:29.647Z,0.00
2018-01-23T02:24:01.473Z,0.00
2018-01-23T02:25:33.332Z,0.00
2018-01-23T02:27:05.097Z,0.00
2018-01-23T02:28:36.914Z,0.00
2018-01-23T02:30:08.732Z,0.00
2018-01-23T02:31:40.549Z,0.00
2018-01-23T02:33:12.370Z,0.00
2018-01-23T02:34:44.184Z,0.00
2018-01-23T02:36:16.001Z,0.00
2018-01-23T02:37:47.818Z,0.00
2018-01-23T02:39:19.885Z,0.00
2018-01-23T02:40:51.459Z,0.00
2018-01-23T02:42:23.269Z,0.00
2018-01-23T02:43:55.087Z,0.00
2018-01-23T02:45:26.912Z,0.00
2018-01-23T02:46:58.730Z,0.00
2018-01-23T02:48:30.538Z,0.00
2018-01-23T02:50:02.356Z,0.00
2018-01-23T02:51:34.179Z,0.00
2018-01-23T02:53:05.990Z,0.00
2018-01-23T02:54:37.808Z,0.00
2018-01-23T02:56:09.623Z,0.00
2018-01-23T02:57:42.153Z,0.00
2018-01-23T02:59:13.258Z,0.00
2018-01-23T03:00:45.074Z,0.00
2018-01-23T03:02:16.892Z,0.00
2018-01-23T03:03:48.737Z,0.00
2018-01-23T03:05:20.591Z,0.00
2018-01-23T03:06:52.388Z,0.00
2018-01-23T03:08:24.159Z,0.00
2018-01-23T03:09:56.126Z,0.00
2018-01-23T03:11:27.793Z,0.00
2018-01-23T03:12:59.610Z,0.00
2018-01-23T03:14:31.427Z,0.00
2018-01-23T03:16:03.344Z,0.00
2018-01-23T03:17:35.060Z,0.00
2018-01-23T03:19:06.877Z,0.00
2018-01-23T03:20:38.694Z,0.00
2018-01-23T03:22:10.511Z,0.00
2018-01-23T03:23:42.332Z,0.00
2018-01-23T03:25:14.146Z,0.00
2018-01-23T03:26:45.963Z,0.00
2018-01-23T03:28:17.931Z,0.00
2018-01-23T03:29:49.597Z,0.00
2018-01-23T03:31:21.415Z,0.00
2018-01-23T03:32:53.232Z,0.00
2018-01-23T03:34:25.149Z,0.00
2018-01-23T03:35:56.866Z,0.00
2018-01-23T03:37:28.683Z,0.00
2018-01-23T03:39:00.501Z,0.00
2018-01-23T03:40:32.318Z,0.00
2018-01-23T03:42:04.135Z,0.00
2018-01-23T03:43:35.952Z,0.00
2018-01-23T03:45:07.770Z,0.00
2018-01-23T03:46:39.737Z,0.00
2018-01-23T03:48:11.404Z,0.00
2018-01-23T03:49:43.222Z,0.00
2018-01-23T03:51:15.042Z,0.00
2018-01-23T03:52:47.208Z,0.00
2018-01-23T03:54:18.675Z,0.00
2018-01-23T03:55:50.493Z,0.00
2018-01-23T03:57:22.311Z,0.00
2018-01-23T03:58:54.278Z,0.00
2018-01-23T04:00:25.946Z,0.00
2018-01-23T04:01:57.763Z,0.00
2018-01-23T04:03:29.583Z,0.00
2018-01-23T04:05:01.398Z,0.00
2018-01-23T04:06:33.216Z,0.00
2018-01-23T04:08:05.034Z,0.00
2018-01-23T04:09:36.852Z,0.00
2018-01-23T04:11:08.919Z,0.00
2018-01-23T04:12:40.486Z,0.00
2018-01-23T04:14:12.303Z,0.00
2018-01-23T04:15:44.121Z,0.00
2018-01-23T04:17:15.938Z,0.00
2018-01-23T04:18:47.760Z,0.00
2018-01-23T04:20:19.573Z,0.00
2018-01-23T04:21:51.391Z,0.00
2018-01-23T04:23:23.458Z,0.00
2018-01-23T04:24:55.026Z,0.00
2018-01-23T04:26:26.844Z,0.00
2018-01-23T04:27:58.661Z,0.00
2018-01-23T04:29:30.729Z,0.00
2018-01-23T04:31:02.307Z,0.00
2018-01-23T04:32:34.113Z,0.00
2018-01-23T04:34:05.930Z,0.00
2018-01-23T04:35:37.748Z,0.00
2018-01-23T04:37:09.566Z,0.00
2018-01-23T04:38:41.384Z,0.00
2018-01-23T04:40:13.202Z,0.00
2018-01-23T04:41:45.170Z,0.00
2018-01-23T04:43:16.837Z,0.00
2018-01-23T04:44:48.656Z,0.00
2018-01-23T04:46:20.473Z,0.00
2018-01-23T04:47:52.391Z,0.00
2018-01-23T04:49:24.108Z,0.00
2018-01-23T04:50:55.926Z,0.00
2018-01-23T04:52:27.744Z,0.00
2018-01-23T04:53:59.561Z,0.00
2018-01-23T04:55:31.379Z,0.00
2018-01-23T04:57:03.197Z,0.00
2018-01-23T04:58:35.014Z,0.00
2018-01-23T05:00:06.935Z,0.00
2018-01-23T05:01:38.650Z,0.00
2018-01-23T05:03:10.467Z,0.00
2018-01-23T05:04:42.285Z,0.00
2018-01-23T05:06:14.203Z,0.00
2018-01-23T05:07:45.924Z,0.00
2018-01-23T05:09:17.739Z,0.00
2018-01-23T05:10:49.557Z,0.00
2018-01-23T05:12:21.526Z,0.00
2018-01-23T05:13:53.193Z,0.00
2018-01-23T05:15:25.011Z,0.00
2018-01-23T05:16:56.829Z,0.00
2018-01-23T05:18:28.646Z,0.00
2018-01-23T05:20:00.465Z,0.00
2018-01-23T05:21:32.282Z,0.00
2018-01-23T05:23:04.101Z,0.00
2018-01-23T05:24:36.270Z,0.00
2018-01-23T05:26:07.736Z,0.00
2018-01-23T05:27:39.554Z,0.00
2018-01-23T05:29:11.372Z,0.00
2018-01-23T05:30:43.190Z,0.00
2018-01-23T05:32:15.010Z,0.00
2018-01-23T05:33:46.826Z,0.00
2018-01-23T05:35:18.644Z,0.00
2018-01-23T05:36:50.461Z,0.00
2018-01-23T05:38:22.280Z,0.00
2018-01-23T05:39:54.097Z,0.00
2018-01-23T05:41:25.916Z,0.00
2018-01-23T05:42:57.985Z,0.00
2018-01-23T05:44:29.551Z,0.00
2018-01-23T05:46:01.370Z,0.00
2018-01-23T05:47:33.186Z,0.00
2018-01-23T05:49:05.005Z,0.00
2018-01-23T05:50:36.823Z,0.00
2018-01-23T05:52:08.640Z,0.00
2018-01-23T05:53:40.459Z,0.00
2018-01-23T05:55:12.276Z,0.00
2018-01-23T05:56:44.093Z,0.00
2018-01-23T05:58:15.911Z,0.00
2018-01-23T05:59:47.729Z,0.00
2018-01-23T06:01:19.797Z,0.00
2018-01-23T06:02:51.365Z,0.00
2018-01-23T06:04:23.188Z,0.00
2018-01-23T06:05:54.999Z,0.00
2018-01-23T06:07:26.818Z,0.00
2018-01-23T06:08:58.635Z,0.00
2018-01-23T06:10:30.453Z,0.00
2018-01-23T06:12:02.278Z,0.00
2018-01-23T06:13:34.239Z,0.00
2018-01-23T06:15:05.907Z,0.00
2018-01-23T06:16:37.724Z,0.00
2018-01-23T06:18:09.542Z,0.00
2018-01-23T06:19:41.461Z,0.00
2018-01-23T06:21:13.183Z,0.00
2018-01-23T06:22:45.002Z,0.00
2018-01-23T06:24:16.813Z,0.00
2018-01-23T06:25:48.882Z,0.00
2018-01-23T06:27:20.449Z,0.00
2018-01-23T06:28:52.267Z,0.00
2018-01-23T06:30:24.086Z,0.00
2018-01-23T06:31:56.053Z,0.00
2018-01-23T06:33:27.720Z,0.00
2018-01-23T06:34:59.537Z,0.00
2018-01-23T06:36:31.358Z,0.00
2018-01-23T06:38:03.273Z,0.00
2018-01-23T06:39:34.991Z,0.00
2018-01-23T06:41:06.807Z,0.00
2018-01-23T06:42:38.625Z,0.00
2018-01-23T06:44:10.592Z,0.00
2018-01-23T06:45:42.259Z,0.00
2018-01-23T06:47:14.076Z,0.00
2018-01-23T06:48:45.893Z,0.00
2018-01-23T06:50:17.710Z,0.00
2018-01-23T06:51:49.527Z,0.00
2018-01-23T06:53:21.344Z,0.00
2018-01-23T06:54:53.218Z,0.00
2018-01-23T06:56:25.328Z,0.00
2018-01-23T06:57:56.794Z,0.00
2018-01-23T06:59:28.611Z,0.00
2018-01-23T07:01:00.427Z,0.00
2018-01-23T07:02:32.244Z,0.00
2018-01-23T07:04:04.062Z,0.00
2018-01-23T07:05:35.880Z,0.00
2018-01-23T07:07:07.697Z,0.00
2018-01-23T07:08:39.512Z,0.00
2018-01-23T07:10:11.328Z,0.00
2018-01-23T07:11:43.146Z,0.00
2018-01-23T07:13:14.962Z,0.00
2018-01-23T07:14:46.880Z,0.00
2018-01-23T07:16:18.597Z,0.00
2018-01-23T07:17:50.412Z,0.00
2018-01-23T07:19:22.229Z,0.00
2018-01-23T07:20:54.198Z,0.00
2018-01-23T07:22:25.862Z,0.00
2018-01-23T07:23:57.679Z,0.00
2018-01-23T07:25:29.497Z,0.00
2018-01-23T07:27:01.314Z,0.00
2018-01-23T07:28:33.130Z,0.00
2018-01-23T07:30:04.947Z,0.00
2018-01-23T07:31:36.764Z,0.00
2018-01-23T07:33:08.831Z,0.00
2018-01-23T07:34:40.398Z,0.00
2018-01-23T07:36:12.215Z,0.00
2018-01-23T07:37:44.032Z,0.00
2018-01-23T07:39:15.847Z,0.00
2018-01-23T07:40:47.666Z,0.00
2018-01-23T07:42:19.481Z,0.00
2018-01-23T07:43:51.304Z,0.00
2018-01-23T07:45:23.115Z,0.00
2018-01-23T07:46:54.932Z,0.00
2018-01-23T07:48:26.748Z,0.00
2018-01-23T07:49:58.564Z,0.00
2018-01-23T07:51:30.481Z,0.00
2018-01-23T07:53:02.198Z,0.00
2018-01-23T07:54:34.015Z,0.00
2018-01-23T07:56:05.878Z,0.00
2018-01-23T07:57:37.899Z,0.00
2018-01-23T07:59:09.465Z,0.00
2018-01-23T08:00:41.282Z,0.00
2018-01-23T08:02:13.098Z,0.00
2018-01-23T08:03:44.915Z,0.00
2018-01-23T08:05:16.732Z,0.00
2018-01-23T08:06:48.550Z,0.00
2018-01-23T08:08:20.367Z,0.00
2018-01-23T08:09:52.287Z,0.00
2018-01-23T08:11:24.004Z,0.00
2018-01-23T08:12:55.818Z,0.00
2018-01-23T08:14:27.635Z,0.00
2018-01-23T08:15:59.452Z,0.00
2018-01-23T08:17:31.269Z,4.00
2018-01-23T08:19:03.124Z,4.00
2018-01-23T08:20:34.936Z,8.00
2018-01-23T08:22:06.720Z,8.00
2018-01-23T08:23:38.537Z,12.00
2018-01-23T08:25:10.354Z,16.00
2018-01-23T08:26:42.365Z,20.00
2018-01-23T08:28:14.090Z,32.00
2018-01-23T08:29:45.806Z,44.00
2018-01-23T08:31:17.640Z,60.00
2018-01-23T08:32:49.444Z,80.00
2018-01-23T08:34:21.840Z,108.00
2018-01-23T08:35:53.418Z,140.00
2018-01-23T08:37:25.051Z,196.00
2018-01-23T08:38:56.861Z,256.00
2018-01-23T08:40:30.063Z,312.00
2018-01-23T08:42:01.095Z,372.00
2018-01-23T08:43:32.604Z,432.00
2018-01-23T08:45:04.855Z,492.00
2018-01-23T08:46:36.325Z,564.00
2018-01-23T08:48:07.863Z,656.00
2018-01-23T08:49:40.179Z,772.00
2018-01-23T08:51:11.383Z,888.00
2018-01-23T08:52:43.420Z,992.00
2018-01-23T08:54:15.040Z,1084.00
2018-01-23T08:55:47.353Z,1216.00
2018-01-23T08:57:19.227Z,1372.00
2018-01-23T08:58:51.498Z,1520.00
2018-01-23T09:00:23.073Z,1668.00
2018-01-23T09:01:54.360Z,1824.00
2018-01-23T09:03:27.056Z,2000.00
2018-01-23T09:04:58.395Z,2180.00
2018-01-23T09:06:30.375Z,2352.00
2018-01-23T09:08:02.064Z,2528.00
2018-01-23T09:09:33.080Z,2720.00
2018-01-23T09:11:05.408Z,2944.00
2018-01-23T09:12:37.449Z,3208.00
2018-01-23T09:14:08.868Z,3540.00
2018-01-23T09:15:41.774Z,3852.00
2018-01-23T09:17:13.112Z,4160.00
2018-01-23T09:18:44.590Z,4504.00
2018-01-23T09:20:16.482Z,4960.00
2018-01-23T09:21:48.628Z,5712.00
2018-01-23T09:23:21.016Z,6452.00
2018-01-23T09:24:51.504Z,7344.00
2018-01-23T09:26:24.000Z,8020.00
2018-01-23T09:27:55.941Z,8908.00
2018-01-23T09:29:27.326Z,8280.00
2018-01-23T09:30:59.528Z,10188.00
2018-01-23T09:32:31.076Z,10648.00
2018-01-23T09:34:02.662Z,10700.00
2018-01-23T09:35:34.559Z,6708.00
2018-01-23T09:37:06.151Z,6968.00
2018-01-23T09:38:38.471Z,11484.00
2018-01-23T09:40:09.981Z,12464.00
2018-01-23T09:41:41.935Z,11732.00
2018-01-23T09:43:13.111Z,10596.00
2018-01-23T09:44:45.080Z,8560.00
2018-01-23T09:46:17.236Z,8960.00
2018-01-23T09:47:48.847Z,8712.00
2018-01-23T09:49:21.823Z,9436.00
2018-01-23T09:50:52.689Z,10272.00
2018-01-23T09:52:25.163Z,9888.00
2018-01-23T09:53:56.647Z,8616.00
2018-01-23T09:55:27.692Z,7944.00
2018-01-23T09:56:59.519Z,7280.00
2018-01-23T09:58:31.552Z,7224.00
2018-01-23T10:00:04.321Z,7500.00
2018-01-23T10:01:35.724Z,9216.00
2018-01-23T10:03:07.374Z,10148.00
2018-01-23T10:04:39.326Z,10396.00
2018-01-23T10:06:10.361Z,11224.00
2018-01-23T10:07:42.235Z,11120.00
2018-01-23T10:09:14.163Z,11128.00
2018-01-23T10:10:47.761Z,13012.00
2018-01-23T10:12:18.088Z,13664.00
2018-01-23T10:13:50.013Z,15816.00
2018-01-23T10:15:22.908Z,16652.00
2018-01-23T10:16:54.082Z,20608.00
2018-01-23T10:18:25.367Z,24288.00
2018-01-23T10:19:57.841Z,25632.00
2018-01-23T10:21:29.044Z,31296.00
2018-01-23T10:23:01.125Z,30752.00
2018-01-23T10:24:33.296Z,29920.00
2018-01-23T10:26:04.887Z,42528.00
2018-01-23T10:27:38.214Z,42784.00
2018-01-23T10:29:08.358Z,25184.00
2018-01-23T10:30:40.230Z,20256.00
2018-01-23T10:32:11.988Z,18592.00
2018-01-23T10:33:47.908Z,17576.00
2018-01-23T10:35:17.456Z,17664.00
2018-01-23T10:36:49.677Z,17912.00
2018-01-23T10:38:19.791Z,18160.00
2018-01-23T10:39:55.874Z,18580.00
2018-01-23T10:41:23.233Z,18816.00
2018-01-23T10:42:54.833Z,18688.00
2018-01-23T10:44:27.948Z,19360.00
2018-01-23T10:45:59.389Z,19616.00
2018-01-23T10:47:30.271Z,20000.00
2018-01-23T10:49:01.841Z,20544.00
2018-01-23T10:50:33.481Z,21344.00
2018-01-23T10:52:05.405Z,22048.00
2018-01-23T10:53:39.717Z,22816.00
2018-01-23T10:55:09.950Z,24064.00
2018-01-23T10:56:41.242Z,25376.00
2018-01-23T10:58:12.645Z,26304.00
2018-01-23T10:59:47.741Z,28608.00
2018-01-23T11:01:17.072Z,32256.00
2018-01-23T11:02:49.992Z,36832.00
2018-01-23T11:04:20.812Z,35424.00
2018-01-23T11:05:52.374Z,35616.00
2018-01-23T11:07:24.529Z,41280.00
2018-01-23T11:08:57.010Z,49952.00
2018-01-23T11:10:27.785Z,57280.00
2018-01-23T11:12:01.184Z,58592.00
2018-01-23T11:13:35.035Z,62048.00
2018-01-23T11:15:04.375Z,63648.00
2018-01-23T11:16:37.226Z,59392.00
2018-01-23T11:18:06.422Z,59104.00
2018-01-23T11:19:39.115Z,56416.00
2018-01-23T11:21:10.278Z,56192.00
2018-01-23T11:22:41.612Z,58976.00
2018-01-23T11:24:13.488Z,59264.00
2018-01-23T11:25:45.362Z,61600.00
2018-01-23T11:27:18.217Z,63072.00
2018-01-23T11:28:48.975Z,63392.00
2018-01-23T11:30:21.048Z,65472.00
2018-01-23T11:31:53.156Z,65024.00
2018-01-23T11:33:25.552Z,63200.00
2018-01-23T11:34:56.806Z,59136.00
2018-01-23T11:36:31.680Z,58752.00
2018-01-23T11:38:01.904Z,59968.00
2018-01-23T11:39:33.532Z,59232.00
2018-01-23T11:41:05.606Z,60384.00
2018-01-23T11:42:36.823Z,62016.00
2018-01-23T11:44:07.883Z,61408.00
2018-01-23T11:45:39.467Z,57920.00
2018-01-23T11:47:11.326Z,60192.00
2018-01-23T11:48:43.477Z,65152.00
2018-01-23T11:50:14.673Z,68256.00
2018-01-23T11:51:46.250Z,68928.00
2018-01-23T11:53:18.111Z,63808.00
2018-01-23T11:54:50.083Z,67488.00
2018-01-23T11:56:21.727Z,68768.00
2018-01-23T11:57:53.678Z,67584.00
2018-01-23T11:59:25.951Z,69920.00
2018-01-23T12:00:58.669Z,70176.00
2018-01-23T12:02:29.924Z,72160.00
2018-01-23T12:04:01.002Z,73984.00
2018-01-23T12:05:32.816Z,73024.00
2018-01-23T12:07:05.261Z,77248.00
2018-01-23T12:08:36.372Z,78432.00
2018-01-23T12:10:08.276Z,79584.00
2018-01-23T12:11:39.924Z,82720.00
2018-01-23T12:13:11.744Z,77856.00
2018-01-23T12:14:43.673Z,72992.00
2018-01-23T12:16:15.446Z,72896.00
2018-01-23T12:17:48.359Z,83968.00
2018-01-23T12:19:19.982Z,89664.00
2018-01-23T12:20:51.026Z,91904.00
2018-01-23T12:22:22.752Z,84224.00
2018-01-23T12:23:55.541Z,75456.00
2018-01-23T12:25:26.590Z,75456.00
2018-01-23T12:26:58.547Z,80448.00
2018-01-23T12:28:30.010Z,87360.00
2018-01-23T12:30:02.416Z,88544.00
2018-01-23T12:31:34.550Z,91936.00
2018-01-23T12:33:05.996Z,100352.00
2018-01-23T12:34:38.781Z,106496.00
2018-01-23T12:36:09.303Z,105632.00
2018-01-23T12:37:40.973Z,106720.00
2018-01-23T12:39:12.799Z,105056.00
2018-01-23T12:40:44.645Z,107392.00
2018-01-23T12:42:16.458Z,105824.00
2018-01-23T12:43:48.282Z,106496.00
2018-01-23T12:45:20.405Z,108288.00
2018-01-23T12:46:51.938Z,110656.00
2018-01-23T12:48:24.502Z,112480.00
2018-01-23T12:49:55.604Z,112800.00
2018-01-23T12:51:27.583Z,110720.00
2018-01-23T12:52:59.253Z,112096.00
2018-01-23T12:54:32.251Z,108352.00
2018-01-23T12:56:03.939Z,100960.00
2018-01-23T12:57:36.381Z,102016.00
2018-01-23T12:59:06.925Z,102752.00
2018-01-23T13:00:39.607Z,105120.00
2018-01-23T13:02:11.287Z,106432.00
2018-01-23T13:03:42.975Z,105152.00
2018-01-23T13:05:13.876Z,106208.00
2018-01-23T13:06:45.955Z,104480.00
2018-01-23T13:08:17.579Z,102144.00
2018-01-23T13:09:50.713Z,103296.00
2018-01-23T13:11:22.293Z,96512.00
2018-01-23T13:12:53.025Z,91232.00
2018-01-23T13:14:24.870Z,93536.00
2018-01-23T13:15:57.616Z,91904.00
2018-01-23T13:17:30.472Z,93664.00
2018-01-23T13:19:00.665Z,96640.00
2018-01-23T13:20:32.214Z,98240.00
2018-01-23T13:22:04.314Z,99104.00
2018-01-23T13:23:35.830Z,98016.00
2018-01-23T13:25:07.879Z,98656.00
2018-01-23T13:26:41.236Z,98912.00
2018-01-23T13:28:11.826Z,94112.00
2018-01-23T13:29:44.288Z,90656.00
2018-01-23T13:31:15.853Z,91328.00
2018-01-23T13:32:51.178Z,93600.00
2018-01-23T13:34:19.869Z,86752.00
2018-01-23T13:35:51.225Z,85056.00
2018-01-23T13:37:23.484Z,93408.00
2018-01-23T13:38:54.293Z,95264.00
2018-01-23T13:40:26.123Z,94368.00
2018-01-23T13:41:57.835Z,87488.00
2018-01-23T13:43:29.936Z,88064.00
2018-01-23T13:45:03.081Z,94528.00
2018-01-23T13:46:35.822Z,95680.00
2018-01-23T13:48:05.152Z,86144.00
2018-01-23T13:49:37.075Z,90944.00
2018-01-23T13:51:10.901Z,100544.00
2018-01-23T13:52:43.229Z,91936.00
2018-01-23T13:54:12.496Z,92224.00
2018-01-23T13:55:44.266Z,92832.00
2018-01-23T13:57:16.094Z,92000.00
2018-01-23T13:58:48.019Z,89344.00
2018-01-23T14:00:19.750Z,87680.00
2018-01-23T14:01:51.613Z,91520.00
2018-01-23T14:03:23.462Z,93024.00
2018-01-23T14:04:55.312Z,96992.00
2018-01-23T14:06:28.216Z,103904.00
2018-01-23T14:07:59.722Z,88960.00
2018-01-23T14:09:30.806Z,69600.00
2018-01-23T14:11:02.700Z,56736.00
2018-01-23T14:12:34.403Z,71264.00
2018-01-23T14:14:06.334Z,75168.00
2018-01-23T14:15:38.062Z,80544.00
2018-01-23T14:17:10.241Z,72416.00
2018-01-23T14:18:41.788Z,55488.00
2018-01-23T14:20:13.578Z,55104.00
2018-01-23T14:21:45.520Z,58432.00
2018-01-23T14:23:17.242Z,62176.00
2018-01-23T14:24:49.071Z,64800.00
2018-01-23T14:26:20.879Z,68032.00
2018-01-23T14:27:52.779Z,71584.00
2018-01-23T14:29:24.907Z,85536.00
2018-01-23T14:30:57.289Z,80736.00
2018-01-23T14:32:28.349Z,76160.00
2018-01-23T14:34:00.351Z,83168.00
2018-01-23T14:35:32.183Z,94720.00
2018-01-23T14:37:04.489Z,96352.00
2018-01-23T14:38:39.778Z,98880.00
2018-01-23T14:40:11.142Z,103648.00
2018-01-23T14:41:42.560Z,104224.00
2018-01-23T14:43:22.763Z,106400.00
2018-01-23T14:44:43.275Z,119008.00
2018-01-23T14:46:15.426Z,113024.00
2018-01-23T14:47:46.516Z,101984.00
2018-01-23T14:49:18.349Z,105696.00
2018-01-23T14:50:50.183Z,113376.00
2018-01-23T14:52:22.014Z,104544.00
2018-01-23T14:53:54.197Z,106976.00
2018-01-23T14:55:26.237Z,107744.00
2018-01-23T14:56:57.515Z,104000.00
2018-01-23T14:58:29.786Z,108032.00
2018-01-23T15:00:01.266Z,109152.00
2018-01-23T15:01:33.011Z,127072.00
2018-01-23T15:03:04.856Z,132896.00
2018-01-23T15:04:36.711Z,111168.00
2018-01-23T15:06:09.208Z,114656.00
2018-01-23T15:07:40.346Z,116384.00
2018-01-23T15:09:12.238Z,120544.00
2018-01-23T15:10:44.124Z,125600.00
2018-01-23T15:12:16.385Z,125472.00
2018-01-23T15:13:47.994Z,99008.00
2018-01-23T15:15:20.045Z,115104.00
2018-01-23T15:16:52.139Z,121536.00
2018-01-23T15:18:23.312Z,130784.00
2018-01-23T15:19:55.047Z,122208.00
2018-01-23T15:21:27.602Z,131776.00
2018-01-23T15:22:59.089Z,134304.00
2018-01-23T15:24:32.348Z,123104.00
2018-01-23T15:26:04.415Z,118848.00
2018-01-23T15:27:35.113Z,115456.00
2018-01-23T15:29:07.060Z,124672.00
2018-01-23T15:30:39.205Z,124192.00
2018-01-23T15:32:10.469Z,120480.00
2018-01-23T15:33:41.539Z,114048.00
2018-01-23T15:35:13.620Z,110976.00
2018-01-23T15:36:45.316Z,108320.00
2018-01-23T15:38:17.510Z,115488.00
2018-01-23T15:39:49.305Z,114624.00
2018-01-23T15:41:20.724Z,119648.00
2018-01-23T15:42:52.542Z,128032.00
2018-01-23T15:44:24.584Z,138400.00
2018-01-23T15:45:56.201Z,127776.00
2018-01-23T15:47:28.038Z,125312.00
2018-01-23T15:49:00.071Z,131200.00
2018-01-23T15:50:31.739Z,131520.00
2018-01-23T15:52:03.590Z,133472.00
2018-01-23T15:53:35.424Z,124768.00
2018-01-23T15:55:07.258Z,128256.00
2018-01-23T15:56:39.048Z,133760.00
2018-01-23T15:58:11.097Z,126592.00
2018-01-23T15:59:42.714Z,39328.00
2018-01-23T16:01:14.552Z,137280.00
2018-01-23T16:02:46.415Z,137312.00
2018-01-23T16:04:18.219Z,89504.00
2018-01-23T16:05:50.055Z,70560.00
2018-01-23T16:07:21.991Z,56192.00
2018-01-23T16:08:53.722Z,96224.00
2018-01-23T16:10:25.557Z,115936.00
2018-01-23T16:11:57.387Z,134272.00
2018-01-23T16:13:29.219Z,139936.00
2018-01-23T16:15:01.052Z,144224.00
2018-01-23T16:16:32.885Z,25728.00
2018-01-23T16:18:04.718Z,24960.00
2018-01-23T16:19:36.550Z,26400.00
2018-01-23T16:21:08.385Z,27616.00
2018-01-23T16:22:40.216Z,37376.00
2018-01-23T16:24:12.045Z,146912.00
2018-01-23T16:25:44.125Z,151584.00
2018-01-23T16:27:15.710Z,32832.00
2018-01-23T16:28:47.540Z,48576.00
2018-01-23T16:30:19.365Z,35424.00
2018-01-23T16:31:51.196Z,54176.00
2018-01-23T16:33:23.024Z,145152.00
2018-01-23T16:34:54.862Z,151232.00
2018-01-23T16:36:26.700Z,142752.00
2018-01-23T16:37:58.515Z,139648.00
2018-01-23T16:39:30.358Z,147872.00
2018-01-23T16:41:02.178Z,142144.00
2018-01-23T16:42:34.028Z,139136.00
2018-01-23T16:44:05.944Z,139264.00
2018-01-23T16:45:37.733Z,140928.00
2018-01-23T16:47:09.537Z,37184.00
2018-01-23T16:48:41.347Z,35872.00
2018-01-23T16:50:13.191Z,85568.00
2018-01-23T16:51:45.013Z,40704.00
2018-01-23T16:53:16.845Z,35424.00
2018-01-23T16:54:48.676Z,143232.00
2018-01-23T16:56:20.506Z,148832.00
2018-01-23T16:57:52.338Z,148736.00
2018-01-23T16:59:24.202Z,150784.00
2018-01-23T17:00:56.021Z,143584.00
2018-01-23T17:02:27.935Z,38016.00
2018-01-23T17:03:59.690Z,69248.00
2018-01-23T17:05:31.501Z,94400.00
2018-01-23T17:07:03.334Z,150080.00
2018-01-23T17:08:35.166Z,144064.00
2018-01-23T17:10:07.000Z,32832.00
2018-01-23T17:11:38.831Z,30176.00
2018-01-23T17:13:10.662Z,29184.00
2018-01-23T17:14:42.493Z,29696.00
2018-01-23T17:16:14.323Z,32384.00
2018-01-23T17:17:46.155Z,64576.00
2018-01-23T17:19:17.982Z,162336.00
2018-01-23T17:20:49.913Z,155872.00
2018-01-23T17:22:21.641Z,146240.00
2018-01-23T17:23:53.471Z,146560.00
2018-01-23T17:25:25.302Z,44288.00
2018-01-23T17:26:57.335Z,42784.00
2018-01-23T17:28:28.965Z,47872.00
2018-01-23T17:30:00.795Z,146464.00
2018-01-23T17:31:32.628Z,147712.00
2018-01-23T17:33:04.459Z,144384.00
2018-01-23T17:34:36.297Z,138816.00
2018-01-23T17:36:08.124Z,50016.00
2018-01-23T17:37:39.964Z,50592.00
2018-01-23T17:39:11.889Z,57440.00
2018-01-23T17:40:43.621Z,51168.00
2018-01-23T17:42:15.457Z,47616.00
2018-01-23T17:43:47.283Z,43264.00
2018-01-23T17:45:19.113Z,36384.00
2018-01-23T17:46:50.943Z,28864.00
2018-01-23T17:48:22.773Z,23488.00
2018-01-23T17:49:54.601Z,20128.00
2018-01-23T17:51:26.429Z,17328.00
2018-01-23T17:52:58.257Z,15188.00
2018-01-23T17:54:30.085Z,12860.00
2018-01-23T17:56:01.912Z,10864.00
2018-01-23T17:57:33.839Z,9288.00
2018-01-23T17:59:05.566Z,8412.00
2018-01-23T18:00:37.392Z,7768.00
2018-01-23T18:02:09.217Z,6784.00
2018-01-23T18:03:41.044Z,6084.00
2018-01-23T18:05:12.870Z,4936.00
2018-01-23T18:06:44.695Z,3692.00
2018-01-23T18:08:16.540Z,2720.00
2018-01-23T18:09:48.346Z,1884.00
2018-01-23T18:11:20.173Z,1372.00
2018-01-23T18:12:51.992Z,1156.00
2018-01-23T18:14:23.814Z,1004.00
2018-01-23T18:15:55.736Z,908.00
2018-01-23T18:17:27.459Z,904.00
2018-01-23T18:18:59.284Z,880.00
2018-01-23T18:20:31.102Z,844.00
2018-01-23T18:22:02.923Z,900.00
2018-01-23T18:23:34.742Z,976.00
2018-01-23T18:25:06.562Z,988.00
2018-01-23T18:26:38.435Z,960.00
2018-01-23T18:28:10.213Z,1252.00
2018-01-23T18:29:42.018Z,1400.00
2018-01-23T18:31:13.838Z,1520.00
2018-01-23T18:32:45.654Z,1600.00
2018-01-23T18:34:17.571Z,1804.00
2018-01-23T18:35:49.295Z,2036.00
2018-01-23T18:37:21.105Z,2244.00
2018-01-23T18:38:52.942Z,2308.00
2018-01-23T18:40:24.738Z,2364.00
2018-01-23T18:41:56.554Z,2400.00
2018-01-23T18:43:28.370Z,2432.00
2018-01-23T18:45:00.186Z,2448.00
2018-01-23T18:48:50.824Z,2560.00
2018-01-23T18:50:22.638Z,2612.00
2018-01-23T18:51:54.453Z,2696.00
2018-01-23T18:53:26.270Z,2784.00
2018-01-23T18:54:58.184Z,2852.00
2018-01-23T18:56:29.900Z,2944.00
2018-01-23T18:58:01.716Z,3032.00
2018-01-23T18:59:33.532Z,2472.00